NCAR-RAP Real-Time Weather Data

Output produced by METARs form (18 August 2018  01:02 UTC)
found at http://weather.rap.ucar.edu/surface/
 
RJSN 180000Z 11005KT 050V160 9999 FEW030 SCT040 BKN/// 22/14 Q1014
RJSN 172300Z 19006KT 9999 FEW030 SCT050 BKN/// 21/15 Q1014
RJSN 172200Z 20009KT 9999 FEW030 SCT050 BKN/// 20/16 Q1014
RJSN 172110Z 19006KT 9999 FEW030 BKN/// 18/16 Q1014 RMK 2CU030 A2994
RJSN 171200Z 34010KT 9999 FEW030 SCT040 21/15 Q1013
RJSN 171100Z 33013KT 9999 FEW030 BKN040 21/15 Q1013
RJSN 171000Z 33012KT 9999 VCSH FEW020 BKN030 21/15 Q1012
RJSN 170903Z 34007KT 300V010 9999 R28/1100VP2000U -SHRA FEW015 SCT020 BKN030 20/17 Q1012 RMK 1CU015 3CU020 5CU030 A2989
RJSN 170900Z 33009KT 300V010 7000 R28/0900VP2000U SHRA FEW015 SCT020 BKN030 20/17 Q1012
RJSN 170813Z 35011KT 9999 R28/0900VP2000U -SHRA FEW010 SCT020 BKN030 21/17 Q1012 RMK 1CU010 3CU020 5CU030 A2989
RJSN 170808Z 32010KT 6000 R28/0900VP2000D SHRA FEW010 SCT020 BKN030 21/17 Q1012 RMK 1CU010 4CU020 6CU030 A2989
RJSN 170804Z 34020G32KT 4000 R28/0900VP2000D +SHRA FEW010 SCT020 BKN030 20/17 Q1012 RMK 1CU010 4CU020 6CU030 A2989
RJSN 170801Z 34022G32KT 4000 SHRA FEW010 SCT020 BKN030 21/17 Q1012 RMK 1CU010 4CU020 6CU030 A2988
RJSN 170800Z 34023KT 8000 -SHRA FEW010 SCT020 BKN030 21/16 Q1011
RJSN 170700Z 31007KT 9999 VCSH SCT020 BKN030 20/17 Q1011
RJSN 170635Z 35016KT 6000 R28/2000N -SHRA FEW020 BKN030 20/17 Q1012 RMK 2CU020 6CU030 A2988
RJSN 170627Z 35019KT 4500 R28/2000N SHRA BR FEW020 BKN030 20/17 Q1011 RMK 2CU020 6CU030 A2988 9999S-W
RJSN 170600Z 32015KT 9999 VCSH FEW020 BKN030 24/14 Q1011
RJSN 170500Z 33015KT 9999 FEW030 BKN040 24/15 Q1011
RJSN 170400Z 33014KT 9999 VCSH FEW020 BKN030 23/15 Q1011
RJSN 170300Z 33017KT 9999 -SHRA FEW020 SCT030 23/15 Q1011
RJSN 170200Z 33020KT 9999 FEW020 SCT030 23/14 Q1012
RJSN 170100Z 33021KT 9999 VCSH FEW020 SCT030 24/15 Q1011
RJSN 170005Z 34020G30KT 9999 VCSH FEW010 BKN030 22/16 Q1011 RMK 1CU010 5CU030 A2987
RJSN 170000Z 33022KT 9999 -SHRA FEW010 BKN030 22/16 Q1011
RJSN 162300Z 33020G30KT 9999 -SHRA FEW010 BKN030 20/15 Q1011
RJSN 162226Z 33016G26KT 9999 VCSH FEW015 BKN030 22/14 Q1011 RMK 1CU015 6CU030 A2986
RJSN 162200Z 32018KT 9999 VCSH FEW015 SCT030 22/14 Q1011
RJSN 162150Z 32017G27KT 9999 VCSH FEW015 SCT030 22/14 Q1011 RMK 1CU015 4CU030 A2985
RJSN 162110Z 33018KT 9999 VCSH FEW015 BKN030 21/14 Q1010 RMK 1CU015 5CU030 A2985
RJSN 161200Z 31014KT 9999 FEW020 SCT030 24/18 Q1008
RJSN 161100Z 31019KT 9999 FEW020 SCT030 24/19 Q1007
RJSN 161000Z 29012KT 8000 -SHRA FEW005 SCT010 BKN020 24/22 Q1006
RJSN 160900Z 24004KT 180V280 8000 -SHRA FEW010 SCT015 BKN020 24/21 Q1005
RJSN 160800Z 24012KT 210V280 9999 R28/1500VP2000N -SHRA FEW010 SCT015 BKN020 23/22 Q1004
RJSN 160750Z 26014KT 220V280 3000 R28/0650VP2000D SHRA BR FEW005 SCT010 BKN020 23/22 Q1004 RMK 2ST005 4CU010 7CU020 A2967
RJSN 160747Z 26014KT 3000 R28/0900VP2000D +SHRA BR FEW005 BKN010 BKN020 22/22 Q1004 RMK 2ST005 5CU010 7CU020 A2967 RI++
RJSN 160744Z 22012G23KT 190V260 3000 R28/2000N +SHRA BR FEW005 BKN010 BKN020 23/22 Q1004 RMK 2ST005 5CU010 7CU020 A2967
RJSN 160715Z 21015G26KT 4000 -SHRA BR FEW005 SCT020 BKN030 23/22 Q1003 RMK 2ST005 4CU020 7CU030 A2964
RJSN 160700Z 21016KT 9999 -SHRA FEW005 SCT020 BKN040 23/22 Q1003
RJSN 160600Z 19015KT 9999 -SHRA FEW007 SCT010 BKN030 23/22 Q1004
RJSN 160500Z 18012KT 8000 -SHRA FEW005 SCT010 BKN030 22/21 Q1005
RJSN 160448Z 17012KT 8000 -SHRA FEW005 SCT010 BKN020 22/22 Q1004 RMK 1ST005 3CU010 6CU020 A2967
RJSN 160400Z 18013KT 7000 SHRA FEW005 SCT007 BKN010 22/22 Q1005
RJSN 160305Z 23010KT 7000 SHRA FEW010 SCT030 BKN050 24/22 Q1005 RMK 1CU010 3CU030 5CU050 A2970 P/RR
RJSN 160300Z 23009KT 9999 -SHRA FEW010 SCT030 BKN050 24/22 Q1005
RJSN 160236Z 27014KT 6000 -SHRA FEW007 SCT010 BKN030 24/23 Q1004 RMK 1CU007 3CU010 5CU030 A2966
RJSN 160227Z 28018KT 5000 R28/2000N SHRA FEW007 SCT010 BKN030 24/23 Q1004 RMK 1CU007 3CU010 6CU030 A2966
RJSN 160201Z 26021G32KT 3000 R28/1400VP2000N SHRA FEW005 SCT007 BKN010 24/24 Q1004 RMK 1ST005 4CU007 7CU010 A2966
RJSN 160200Z 26021G32KT 3000 R28/1400VP2000N SHRA FEW005 SCT007 BKN010 24/24 Q1004
RJSN 160148Z 25017KT 3500 R28/1600VP2000N SHRA FEW005 SCT007 BKN010 24/24 Q1003 RMK 1ST005 3CU007 7CU010 A2964
RJSN 160144Z 24015KT 4000 R28/1100VP2000U -SHRA FEW005 SCT007 BKN010 24/24 Q1003 RMK 1ST005 4CU007 7CU010 A2964
RJSN 160141Z 24013KT 4000 R28/0900VP2000U -SHRA FEW005 SCT007 BKN010 FEW015CB 24/24 Q1003 RMK 1ST005 4CU007 7CU010 1CB015 A2964 CB 20KM E MOV NE
RJSN 160137Z 25013KT 2500 R28/0900V1500N TSRA FEW005 SCT007 BKN010 SCT015CB 24/24 Q1003 RMK 1ST005 4CU007 6CU010 3CB015 A2964 FBL TS 10KM NE MOV NE
RJSN 160127Z 25014KT 2000 R28/0550V1300U +TSRA FEW005 BKN007 BKN010 SCT015CB 24/24 Q1004 RMK 1ST005 5CU007 7CU010 4CB015 A2965 RI++ FBL TS 5KM NE MOV NE
RJSN 160121Z 27020G30KT 0800 R28/0550V1600D +TSRA VV006 24/23 Q1003 RMK A2964 RI++ MOD TS OHD MOV NE
RJSN 160118Z 28021KT 0700 R28/0550VP2000D +SHRA VV006 24/23 Q1003 RMK A2964 RI++
RJSN 160117Z 28020G30KT 0700 R28/0650VP2000D +SHRA VV006 24/23 Q1003 RMK A2964 RI++
RJSN 160115Z 28019G30KT 1000 R28/0900VP2000D +SHRA VV006 24/24 Q1003 RMK A2964 RI++
RJSN 160113Z 28019G30KT 2000 R28/1000VP2000D +SHRA FEW005 BKN007 BKN010 24/23 Q1003 RMK 1ST005 5CU007 7CU010 A2964 RI++
RJSN 160111Z 28017KT 3000 +SHRA FEW005 SCT007 BKN010 25/24 Q1003 RMK 1ST005 4CU007 7CU010 A2963 RI++
RJSN 160110Z 27017KT 4000 SHRA FEW005 SCT007 BKN010 25/24 Q1003 RMK 1ST005 4CU007 7CU010 A2963 9999SE
RJSN 160100Z 27015KT 9999 -SHRA FEW005 SCT007 BKN010 FEW015CB 25/23 Q1003
RJSN 160000Z 15009KT 9999 -SHRA FEW005 SCT010 BKN020 26/26 Q1003
RJSN 152338Z 14004KT 060V190 8000 R28/1000VP2000U -SHRA FEW007 BKN010 BKN020 25/25 Q1004 RMK 1CU007 5CU010 7CU020 A2966
RJSN 152329Z VRB02KT 5000 R28/1000VP2000D SHRA BR FEW007 BKN010 BKN020 25/25 Q1004 RMK 1CU007 5CU010 7CU020 A2965
RJSN 152325Z 10004KT 3000 +SHRA BR FEW007 BKN010 BKN020 25/24 Q1004 RMK 2CU007 5CU010 7CU020 A2966 RI++
RJSN 152321Z 09004KT 4000 -SHRA BR FEW007 BKN010 BKN020 25/24 Q1004 RMK 1CU007 5CU010 7CU020 A2965
RJSN 152300Z 08005KT 9999 FEW007 BKN010 BKN020 25/24 Q1004
RJSN 152236Z 08007KT 9999 -SHRA FEW005 SCT007 BKN010 25/24 Q1004 RMK 1ST005 3CU007 5CU010 A2967
RJSN 152229Z 09004KT 010V130 7000 SHRA FEW005 SCT007 BKN010 25/24 Q1004 RMK 1ST005 3CU007 5CU010 A2967
RJSN 152206Z 05010KT 6000 R28/1000VP2000U -SHRA FEW005 SCT007 BKN010 25/24 Q1005 RMK 1ST005 3CU007 6CU010 A2968
RJSN 152204Z 05009KT 6000 R28/0800VP2000U -SHRA FEW005 SCT007 BKN010 24/24 Q1005 RMK 1ST005 4CU007 6CU010 A2968
RJSN 152201Z 05009KT 5000 R28/0700VP2000U -SHRA BR FEW005 BKN007 BKN010 25/24 Q1005 RMK 2ST005 5CU007 7CU010 A2968
RJSN 152200Z 05010KT 5000 R28/0700VP2000U -SHRA BR SCT005 BKN007 BKN010 25/24 Q1005
RJSN 152150Z 04013KT 4000 SHRA BR FEW005 BKN007 BKN010 25/25 Q1005 RMK 1ST005 5CU007 7CU010 A2968
RJSN 152142Z 03010KT 5000 -SHRA BR FEW005 SCT007 BKN010 25/25 Q1005 RMK 1ST005 3CU007 7CU010 A2968
RJSN 152136Z 02009KT 320V060 4000 SHRA BR FEW005 SCT007 BKN010 25/25 Q1005 RMK 1ST005 4CU007 7CU010 A2968
RJSN 152127Z 33011KT 9999 -SHRA FEW005 BKN007 BKN010 25/25 Q1005 RMK 1ST005 5CU007 7CU010 A2969
RJSN 152123Z 03011KT 9999 -SHRA FEW005 BKN007 BKN010 25/25 Q1005 RMK 1ST005 5CU007 7CU010 A2968
RJSN 152119Z 33011KT 290V010 9999 -SHRA FEW007 BKN010 BKN020 25/24 Q1005 RMK 1CU007 5CU010 7CU020 A2969
RJSN 152116Z 27007KT 9999 -SHRA FEW010 BKN020 BKN030 25/24 Q1005 RMK 2CU010 5CU020 7CU030 A2968
RJSN 152110Z 21011KT 8000 -SHRA FEW010 SCT020 BKN030 25/24 Q1005 RMK 1CU010 3CU020 5CU030 A2969